AirNav   Phillips 66 Aviation Fuel
 
 322 users online  

01G Perry-Warsaw Airport
Perry, New York, USA

GOING TO PERRY?


FAA INFORMATION EFFECTIVE 06 DECEMBER 2018

Location

FAA Identifier: 01G
Lat/Long: 42-44-28.9000N / 078-03-07.7000W
42-44.481667N / 078-03.128333W
42.7413611 / -78.0521389
(estimated)
Elevation: 1558.1 ft. / 474.9 m (surveyed)
Variation: 10W (1985)
From city: 3 miles NW of PERRY, NY
Time zone: UTC -5 (UTC -4 during Daylight Saving Time)
Zip code: 14530

Airport Operations

Airport use: Open to the public
Activation date: 10/1947
Control tower: no
ARTCC: CLEVELAND CENTER
FSS: BUFFALO FLIGHT SERVICE STATION
NOTAMs facility: BUF (NOTAM-D service available)
Attendance: MON-FRI 0900-1600
CALL MANAGER FOR SERVICES.
Wind indicator: lighted
Segmented circle: no
Lights: ACTVT MIRL RY 10/28 & REIL RYS 10 &28 - CTAF.
Beacon: white-green (lighted land airport)
Operates sunset to sunrise.

Airport Communications

CTAF/UNICOM: 122.8
WX ASOS at DSV (18 nm SE): 118.325 (585-335-2380)
WX AWOS-3PT at GVQ (18 nm N): 127.525 (585-343-6369)
  • CD THRU FLT SVCS 1-888-766-8267.

Nearby radio navigation aids

VOR radial/distance  VOR name  Freq  Var
GEEr257/15.1GENESEO VOR/DME108.2009W
ROCr228/28.1ROCHESTER VOR/DME110.0012W
BUFr121/28.5BUFFALO VOR/DME116.4008W
ELZr006/39.2WELLSVILLE VORTAC111.4009W

Airport Services

Fuel available: 100LL
FUEL AVBL 24 HRS SELF SERVE & CREDIT CARD ONLY.
Parking: hangars and tiedowns
Airframe service: MAJOR
Powerplant service: MAJOR
Bottled oxygen: NONE
Bulk oxygen: NONE

Runway Information

Runway 10/28

Dimensions: 3429 x 60 ft. / 1045 x 18 m
Surface: asphalt, in good condition
Runway edge lights: medium intensity
RUNWAY 10  RUNWAY 28
Latitude: 42-44.487338N42-44.486403N
Longitude: 078-03.565035W078-02.799172W
Elevation: 1549.3 ft.1545.2 ft.
Traffic pattern: leftleft
Runway heading: 100 magnetic, 090 true280 magnetic, 270 true
Displaced threshold: no640 ft.
Markings: basic, in good conditionbasic, in good condition
Visual slope indicator: 4-light PAPI on left (3.00 degrees glide path)
Runway end identifier lights: yes
RY 10 REIL OTS INDEFLY.
yes
RY 28 REIL OTS INDEFLY.
Touchdown point: yes, no lightsyes, no lights
Obstructions: 29 ft. brush, 249 ft. from runway, 39 ft. left of centerline, 1:1 slope to clear
RY 10 20 FT HIGH BRUSH, 0-200 FT FM RY 80 FT FM CNTRLN L/R.
44 ft. tree, 465 ft. from runway, 107 ft. left of centerline, 6:1 slope to clear
25:1 OBSTRUCTION SLOPE TO DISPLACED THRESHOLD

Runway 4/22

Dimensions: 1806 x 60 ft. / 550 x 18 m
Surface: turf, in good condition
RY 04/22 SOFT & WET DURING MAR-JUN. CALL MANAGER FOR FIELD CONDITIONS.
RUNWAY 4  RUNWAY 22
Latitude: 42-44.342642N42-44.596573N
Longitude: 078-03.132818W078-02.922903W
Elevation: 1543.5 ft.1552.4 ft.
Gradient: 0.5% UP
Traffic pattern: leftleft
Runway heading: 041 magnetic, 031 true221 magnetic, 211 true
Touchdown point: yes, no lightsyes, no lights
Obstructions: 54 ft. trees, 79 ft. from runway, 127 ft. left of centerline, 1:1 slope to clear6 ft. fence, 123 ft. left of centerline

Airport Ownership and Management from official FAA records

Ownership: Publicly-owned
Owner: TOWNS OF PERRY AND WARSAW
6522 RT. 20A
PERRY, NY 14530
Phone (585) 227-2241
BECKY RYAN & JIM BRICK, CO-SUPERVISORS
Manager: KEN MOSES
NY
Phone 585-237-9938
MOBIL - (585) 353-4666.

Airport Operational Statistics

Aircraft based on the field: 20
Single engine airplanes: 18
Multi engine airplanes: 2
    
Aircraft operations: avg 40/day *
76% local general aviation
21% transient general aviation
3% military
* for 12-month period ending 17 August 2017

Additional Remarks

TURF RY 04/22 MAY BE UNUSABLE DURING MONTHS OCT-MAY; CALL 716-237-9938 FOR CONDITION.
RY 28 200 FT FM THLD HAS 8 FT DROPOFF BOTH SIDES.
PARALLEL TWY UNLGTD.
FIRST 700 FT OF RY 28 SLOPES UPHILL.
RY 4 SAFETY AREA DROPS OFF 100 FT BEFORE RY BEG., AT 125 FT L & R OF CNTRLN.
FIRST 1,700 FT OF RY 10 SLOPES UPHILL.

Instrument Procedures

There are no published instrument procedures at 01G.

Some nearby airports with instrument procedures:

5G0 - Le Roy Airport (15 nm N)
KDSV - Dansville Municipal Airport (18 nm SE)
KGVQ - Genesee County Airport (18 nm N)
9G3 - Akron Airport (25 nm NW)
KHTF - Hornell Municipal Airport (27 nm SE)
 
Loc | Ops | Rwys | IFR | FBO | Links
Com | Nav | Svcs | Stats | Notes


 
Area around 01G (Perry-Warsaw Airport)
 
Road maps at: MapQuest Bing Google
 
Aerial photo
WARNING: Photo may not be current or correct
Aerial photo of 01G (Perry-Warsaw Airport)
Photo courtesy of Judy M. Bowser (Barnard)

Do you have a better or more recent aerial photo of Perry-Warsaw Airport that you would like to share? If so, please send us your photo.

 
Sectional chart

 
Airport distance calculator
Flying to Perry-Warsaw Airport? Find the distance to fly.

From to 01G

Sunrise and sunset
Times for 15-Dec-2018
 Local
(UTC-5)
 Zulu
(UTC)
Morning civil twilight07:0512:05
Sunrise07:3712:37
Sunset16:3821:38
Evening civil twilight17:1022:10

Current date and time
Zulu (UTC)  15-Dec-2018 09:07:12
Local (UTC-5)  15-Dec-2018 04:07:12
 
METAR
KDSV 
18nm SE 
150854Z AUTO 15006KT 9SM CLR 04/02 A3017 RMK AO2 SLP229 T00390017 53002
KGVQ 
18nm N 
150856Z AUTO 31003KT 10SM FEW013 SCT024 04/01 A3017 RMK AO2 SLP247 T00390011 53009
KROC 
28nm NE 
150854Z 36005KT 10SM FEW017 OVC027 04/02 A3017 RMK AO2 SLP224 T00440022 53007
KBUF 
32nm W 
150854Z 35007KT 10SM BKN021 03/02 A3018 RMK AO2 PRESRR SLP226 T00330017 53011
KOLE 
34nm SW 
150855Z AUTO 00000KT 5SM BR CLR 02/02 A3014 RMK AO2
TAF
KROC 
28nm NE 
150538Z 1506/1606 22005KT P6SM SCT040 BKN200 FM150800 26005KT P6SM BKN025 FM151100 30005KT P6SM BKN008 FM151400 35005KT P6SM BKN025 FM151800 05006KT P6SM BKN150 FM160400 06007KT P6SM BKN100
KBUF 
32nm W 
150717Z 1507/1606 22005KT P6SM SCT015 BKN025 FM151000 VRB03KT 3SM BR BKN008 FM151400 04006KT P6SM BKN040 FM151800 06008KT P6SM BKN150 FM160400 07008KT P6SM BKN100
NOTAMs
Click for the latest NOTAMs
NOTAMs are issued by the DoD/FAA and will open in a separate window not controlled by AirNav.

 

 
 

FBO, Fuel Providers, and Aircraft Ground Support

  
 Business Name 
 
 Contact 
 
 Services / Description 
 
Fuel Prices
 
Comments
  
Town of Perry 585-353-4666
no information available

If you are affiliated with Town of Perry and would like to show here your services, contact info, web link, logo, and more, click here
100LL
SS $5.15 
 Updated 22-Oct-2018
 
   write
SS=Self service
Update Fuel Prices
 

Would you like to see your business listed on this page?

 If your business provides an interesting product or service to pilots, flight crews, aircraft, or users of the Perry-Warsaw Airport, you should consider listing it here.  To start the listing process, click on the button below
 
Add a business
 

Other Pages about Perry-Warsaw Airport

Update a link
 
Copyright © AirNav, LLC. All rights reserved. Privacy Policy  Contact